createdAt,value
2018-12-17T00:01:45.204Z,5.97
2018-12-17T00:06:20.132Z,8.40
2018-12-17T00:10:55.012Z,6.30
2018-12-17T00:15:29.874Z,5.77
2018-12-17T00:20:05.214Z,7.87
2018-12-17T00:24:40.076Z,8.93
2018-12-17T00:29:14.968Z,10.67
2018-12-17T00:33:49.835Z,8.97
2018-12-17T00:38:24.787Z,9.63
2018-12-17T00:42:59.784Z,8.17
2018-12-17T00:47:34.761Z,15.47
2018-12-17T00:52:09.837Z,7.07
2018-12-17T00:56:44.852Z,7.97
2018-12-17T01:01:19.864Z,5.87
2018-12-17T01:05:54.846Z,5.63
2018-12-17T01:10:29.827Z,5.43
2018-12-17T01:15:07.046Z,4.33
2018-12-17T01:19:41.962Z,4.80
2018-12-17T01:24:17.391Z,5.83
2018-12-17T01:28:52.726Z,4.90
2018-12-17T01:33:27.646Z,4.50
2018-12-17T01:38:02.509Z,5.90
2018-12-17T01:42:37.439Z,7.30
2018-12-17T01:47:12.896Z,5.97
2018-12-17T01:51:47.850Z,4.37
2018-12-17T01:56:22.731Z,5.30
2018-12-17T02:00:57.606Z,5.63
2018-12-17T02:05:32.465Z,5.03
2018-12-17T02:10:07.469Z,6.90
2018-12-17T02:14:42.359Z,6.17
2018-12-17T02:19:17.238Z,5.93
2018-12-17T02:23:52.155Z,7.17
2018-12-17T02:28:27.085Z,5.63
2018-12-17T02:33:02.319Z,8.67
2018-12-17T02:37:37.223Z,9.43
2018-12-17T02:42:12.919Z,6.23
2018-12-17T02:46:47.828Z,7.10
2018-12-17T02:51:22.696Z,6.80
2018-12-17T02:55:57.680Z,6.70
2018-12-17T03:00:32.826Z,5.10
2018-12-17T03:05:08.663Z,6.73
2018-12-17T03:09:43.623Z,6.30
2018-12-17T03:14:19.125Z,6.87
2018-12-17T03:18:53.991Z,6.60
2018-12-17T03:23:28.904Z,7.03
2018-12-17T03:28:03.788Z,6.47
2018-12-17T03:32:38.665Z,5.53
2018-12-17T03:37:14.114Z,5.97
2018-12-17T03:41:49.008Z,7.70
2018-12-17T03:46:23.872Z,5.73
2018-12-17T03:50:58.803Z,7.73
2018-12-17T03:55:33.780Z,6.57
2018-12-17T04:00:08.924Z,10.53
2018-12-17T04:04:44.439Z,11.10
2018-12-17T04:09:19.398Z,10.70
2018-12-17T04:13:54.366Z,7.20
2018-12-17T04:18:29.415Z,6.27
2018-12-17T04:23:04.452Z,6.67
2018-12-17T04:27:39.477Z,5.67
2018-12-17T04:32:14.322Z,4.30
2018-12-17T04:36:49.291Z,5.33
2018-12-17T04:41:24.224Z,3.90
2018-12-17T04:45:59.124Z,7.30
2018-12-17T04:50:34.029Z,4.43
2018-12-17T04:55:09.087Z,5.00
2018-12-17T04:59:43.999Z,6.77
2018-12-17T05:04:18.909Z,6.77
2018-12-17T05:08:53.898Z,5.23
2018-12-17T05:13:28.799Z,7.03
2018-12-17T05:18:03.799Z,7.43
2018-12-17T05:22:38.755Z,9.63
2018-12-17T05:27:13.640Z,9.73
2018-12-17T05:31:48.529Z,9.03
2018-12-17T05:36:23.404Z,7.83
2018-12-17T05:40:58.432Z,10.33
2018-12-17T05:45:33.357Z,16.43
2018-12-17T05:50:09.217Z,10.63
2018-12-17T05:54:44.092Z,15.77
2018-12-17T05:59:19.044Z,13.80
2018-12-17T06:03:53.945Z,18.80
2018-12-17T06:08:28.844Z,15.47
2018-12-17T06:13:03.785Z,15.77
2018-12-17T06:17:38.713Z,15.10
2018-12-17T06:22:13.585Z,17.70
2018-12-17T06:26:48.541Z,18.07
2018-12-17T06:31:23.432Z,17.53
2018-12-17T06:35:58.391Z,18.13
2018-12-17T06:40:33.839Z,15.83
2018-12-17T06:45:08.911Z,16.93
2018-12-17T06:49:43.813Z,18.23
2018-12-17T06:54:18.850Z,21.90
2018-12-17T06:58:53.748Z,18.23
2018-12-17T07:03:28.665Z,19.80
2018-12-17T07:08:03.675Z,21.87
2018-12-17T07:12:38.567Z,18.10
2018-12-17T07:17:13.473Z,14.90
2018-12-17T07:21:48.508Z,21.07
2018-12-17T07:26:23.442Z,17.50
2018-12-17T07:30:58.355Z,23.63
2018-12-17T07:35:33.580Z,19.50
2018-12-17T07:40:08.616Z,18.10
2018-12-17T07:44:43.483Z,17.07
2018-12-17T07:49:18.390Z,17.00
2018-12-17T07:53:53.261Z,17.90
2018-12-17T07:58:28.149Z,17.57
2018-12-17T08:03:03.034Z,15.17
2018-12-17T08:07:37.927Z,13.07
2018-12-17T08:12:12.869Z,16.40
2018-12-17T08:16:47.896Z,16.27
2018-12-17T08:21:22.880Z,13.20
2018-12-17T08:25:58.164Z,16.13
2018-12-17T08:30:33.884Z,16.40
2018-12-17T08:35:08.898Z,13.13
2018-12-17T08:39:43.795Z,18.63
2018-12-17T08:44:18.793Z,14.10
2018-12-17T08:48:53.836Z,16.80
2018-12-17T08:53:28.987Z,19.50
2018-12-17T08:58:04.170Z,17.87
2018-12-17T09:02:39.076Z,23.40
2018-12-17T09:07:14.101Z,21.63
2018-12-17T09:11:50.355Z,17.00
2018-12-17T09:16:25.274Z,16.93
2018-12-17T09:21:00.155Z,14.80
2018-12-17T09:25:35.099Z,11.40
2018-12-17T09:30:17.962Z,11.03
2018-12-17T09:34:47.806Z,10.43
2018-12-17T09:39:22.697Z,10.57
2018-12-17T09:43:57.907Z,14.50
2018-12-17T09:48:32.795Z,13.00
2018-12-17T09:53:07.704Z,13.70
2018-12-17T09:57:42.583Z,19.93
2018-12-17T10:02:17.470Z,18.13
2018-12-17T10:06:52.353Z,15.60
2018-12-17T10:11:27.242Z,13.43
2018-12-17T10:16:02.124Z,15.97
2018-12-17T10:20:37.024Z,13.30
2018-12-17T10:25:11.883Z,14.40
2018-12-17T10:29:46.783Z,20.53
2018-12-17T10:34:21.652Z,15.63
2018-12-17T10:38:56.549Z,12.83
2018-12-17T10:43:31.437Z,15.90
2018-12-17T10:48:06.355Z,23.10
2018-12-17T10:52:41.263Z,21.90
2018-12-17T10:57:16.239Z,14.20
2018-12-17T11:01:56.535Z,14.10
2018-12-17T11:06:31.892Z,11.70
2018-12-17T11:11:07.096Z,14.53
2018-12-17T11:15:41.975Z,11.37
2018-12-17T11:20:16.965Z,11.90
2018-12-17T11:24:52.039Z,13.97
2018-12-17T11:29:26.939Z,12.50
2018-12-17T11:34:01.879Z,18.63
2018-12-17T11:38:36.760Z,13.70
2018-12-17T11:43:12.563Z,11.20
2018-12-17T11:47:47.482Z,16.80
2018-12-17T11:52:22.398Z,12.60
2018-12-17T11:59:07.376Z,20.23
2018-12-17T12:03:44.626Z,14.47
2018-12-17T12:08:19.727Z,17.97
2018-12-17T12:12:54.614Z,15.77
2018-12-17T12:17:29.503Z,17.07
2018-12-17T12:22:05.151Z,14.83
2018-12-17T12:26:40.131Z,12.87
2018-12-17T12:31:15.015Z,12.13
2018-12-17T12:35:49.991Z,16.30
2018-12-17T12:40:24.872Z,14.47
2018-12-17T12:44:59.771Z,15.40
2018-12-17T12:49:34.650Z,15.90
2018-12-17T12:54:09.543Z,15.03
2018-12-17T12:58:44.424Z,15.23
2018-12-17T13:03:19.322Z,13.97
2018-12-17T13:07:54.244Z,11.33
2018-12-17T13:12:29.143Z,15.30
2018-12-17T13:17:09.255Z,15.43
2018-12-17T13:21:44.145Z,13.77
2018-12-17T13:26:19.016Z,14.50
2018-12-17T13:30:53.927Z,16.27
2018-12-17T13:35:28.807Z,16.70
2018-12-17T13:40:04.668Z,16.47
2018-12-17T13:44:39.564Z,14.60
2018-12-17T13:49:14.571Z,17.10
2018-12-17T13:53:49.455Z,19.07
2018-12-17T13:58:24.347Z,18.40
2018-12-17T14:02:59.260Z,16.97
2018-12-17T14:07:34.180Z,21.07
2018-12-17T14:12:09.695Z,19.57
2018-12-17T14:16:49.864Z,16.50
2018-12-17T14:21:30.104Z,20.40
2018-12-17T14:26:05.007Z,17.43
2018-12-17T14:30:39.964Z,14.07
2018-12-17T14:35:14.916Z,15.77
2018-12-17T14:39:49.800Z,16.63
2018-12-17T14:44:29.892Z,18.83
2018-12-17T14:49:04.886Z,20.87
2018-12-17T14:53:39.766Z,18.73
2018-12-17T14:58:14.674Z,23.93
2018-12-17T15:02:49.560Z,23.33
2018-12-17T15:07:24.560Z,17.43
2018-12-17T15:11:59.496Z,21.53
2018-12-17T15:16:35.148Z,16.30
2018-12-17T15:21:10.052Z,19.20
2018-12-17T15:25:44.923Z,25.37
2018-12-17T15:30:19.815Z,21.17
2018-12-17T15:34:54.696Z,19.40
2018-12-17T15:39:29.603Z,22.13
2018-12-17T15:44:04.484Z,24.00
2018-12-17T15:48:39.385Z,19.90
2018-12-17T15:53:14.264Z,19.73
2018-12-17T15:57:49.151Z,16.87
2018-12-17T16:02:24.016Z,29.07
2018-12-17T16:06:58.913Z,22.87
2018-12-17T16:11:33.796Z,22.83
2018-12-17T16:16:08.732Z,26.23
2018-12-17T16:20:44.790Z,27.23
2018-12-17T16:25:20.464Z,21.80
2018-12-17T16:29:55.766Z,22.87
2018-12-17T16:34:30.696Z,19.80
2018-12-17T16:39:07.627Z,21.57
2018-12-17T16:43:42.559Z,26.73
2018-12-17T16:48:18.443Z,19.67
2018-12-17T16:52:53.354Z,40.17
2018-12-17T16:57:28.240Z,27.13
2018-12-17T17:02:04.689Z,29.60
2018-12-17T17:06:39.895Z,28.20
2018-12-17T17:11:14.796Z,29.27
2018-12-17T17:15:49.671Z,27.33
2018-12-17T17:20:24.564Z,25.60
2018-12-17T17:24:59.431Z,25.80
2018-12-17T17:29:34.339Z,32.27
2018-12-17T17:34:10.177Z,29.17
2018-12-17T17:38:45.519Z,25.60
2018-12-17T17:43:20.531Z,25.57
2018-12-17T17:47:55.524Z,30.27
2018-12-17T17:52:30.398Z,24.17
2018-12-17T17:57:05.647Z,22.40
2018-12-17T18:01:40.539Z,21.30
2018-12-17T18:06:16.372Z,23.07
2018-12-17T18:10:51.701Z,24.73
2018-12-17T18:15:26.611Z,26.37
2018-12-17T18:20:01.479Z,30.17
2018-12-17T18:24:36.883Z,31.87
2018-12-17T18:29:11.851Z,31.93
2018-12-17T18:33:46.763Z,28.93
2018-12-17T18:38:21.664Z,34.30
2018-12-17T18:42:56.683Z,30.43
2018-12-17T18:47:31.575Z,30.23
2018-12-17T18:52:06.491Z,26.67
2018-12-17T18:56:41.440Z,28.73
2018-12-17T19:01:16.368Z,36.73
2018-12-17T19:05:51.358Z,34.63
2018-12-17T19:10:30.477Z,41.00
2018-12-17T19:15:06.179Z,39.30
2018-12-17T19:19:41.070Z,40.57
2018-12-17T19:24:16.519Z,43.43
2018-12-17T19:28:51.477Z,45.03
2018-12-17T19:33:26.352Z,44.13
2018-12-17T19:38:01.288Z,43.13
2018-12-17T19:42:36.167Z,38.93
2018-12-17T19:47:11.063Z,34.30
2018-12-17T19:51:46.005Z,41.90
2018-12-17T19:56:20.939Z,40.67
2018-12-17T20:00:55.903Z,43.87
2018-12-17T20:05:30.984Z,38.30
2018-12-17T20:10:08.097Z,40.90
2018-12-17T20:14:43.007Z,32.57
2018-12-17T20:19:17.973Z,38.10
2018-12-17T20:23:53.573Z,40.13
2018-12-17T20:28:28.462Z,29.40
2018-12-17T20:33:05.037Z,28.13
2018-12-17T20:37:39.907Z,30.70
2018-12-17T20:42:15.715Z,33.50
2018-12-17T20:46:50.592Z,35.40
2018-12-17T20:51:25.549Z,30.47
2018-12-17T20:56:00.459Z,22.23
2018-12-17T21:00:35.490Z,25.43
2018-12-17T21:05:10.364Z,21.90
2018-12-17T21:09:45.328Z,19.97
2018-12-17T21:14:23.627Z,21.30
2018-12-17T21:18:57.519Z,17.77
2018-12-17T21:23:32.515Z,16.63
2018-12-17T21:28:07.403Z,18.43
2018-12-17T21:32:42.342Z,15.97
2018-12-17T21:37:17.260Z,17.00
2018-12-17T21:41:52.164Z,20.97
2018-12-17T21:46:27.052Z,20.63
2018-12-17T21:51:01.966Z,17.00
2018-12-17T21:55:36.828Z,17.90
2018-12-17T22:00:11.975Z,19.03
2018-12-17T22:04:46.903Z,16.30
2018-12-17T22:09:21.772Z,16.50
2018-12-17T22:13:58.266Z,18.33
2018-12-17T22:18:33.114Z,15.30
2018-12-17T22:23:08.059Z,14.90
2018-12-17T22:27:43.008Z,16.50
2018-12-17T22:32:17.895Z,15.10
2018-12-17T22:36:52.760Z,13.73
2018-12-17T22:41:27.695Z,21.33
2018-12-17T22:46:03.287Z,14.37
2018-12-17T22:50:39.155Z,14.83
2018-12-17T22:55:14.068Z,16.83
2018-12-17T22:59:49.009Z,25.17
2018-12-17T23:04:23.929Z,13.27
2018-12-17T23:09:03.580Z,10.90
2018-12-17T23:13:49.532Z,16.43
2018-12-17T23:18:23.796Z,13.27
2018-12-17T23:22:58.763Z,14.93
2018-12-17T23:27:34.506Z,12.33
2018-12-17T23:32:09.930Z,12.27
2018-12-17T23:36:44.827Z,14.53
2018-12-17T23:41:19.743Z,11.83
2018-12-17T23:45:54.667Z,12.60
2018-12-17T23:50:29.739Z,8.53
2018-12-17T23:55:05.580Z,7.40
2018-12-17T23:59:40.490Z,5.73
